Time;durP1;ratioP1;P1;durP2;ratioP2;P2;SDS_P1;SDS_P2;PMS_P1;PMS_P2;Temp;Humidity;BMP_temperature;BMP_pressure;BME280_temperature;BME280_humidity;BME280_pressure;Samples;Min_cycle;Max_cycle;Signal;HPM_P1;HPM_P2
2022/05/26 00:01:33;;;;;;;2.90;1.90;;;14.80;72.70;;;;;;5069175;28;20442;-77
2022/05/26 00:03:59;;;;;;;3.20;2.10;;;14.80;73.00;;;;;;5067229;28;20206;-76
2022/05/26 00:06:25;;;;;;;3.93;1.30;;;14.80;72.10;;;;;;5062985;28;20206;-76
2022/05/26 00:08:52;;;;;;;4.80;2.00;;;14.90;71.70;;;;;;5070971;28;20268;-77
2022/05/26 00:11:23;;;;;;;1.80;1.37;;;15.10;71.00;;;;;;5069717;28;20456;-76
2022/05/26 00:13:49;;;;;;;3.00;1.33;;;15.10;71.00;;;;;;5068206;28;20447;-75
2022/05/26 00:16:15;;;;;;;2.93;1.90;;;15.10;71.00;;;;;;5070949;28;20425;-75
2022/05/26 00:18:40;;;;;;;4.10;1.93;;;15.10;70.70;;;;;;5064614;28;20471;-76
2022/05/26 00:21:07;;;;;;;3.70;1.93;;;15.20;70.40;;;;;;5072504;28;20185;-76
2022/05/26 00:23:33;;;;;;;2.70;1.80;;;15.20;69.90;;;;;;5070682;28;20276;-77
2022/05/26 00:25:58;;;;;;;4.33;2.00;;;15.20;69.90;;;;;;5067652;28;20476;-78
2022/05/26 00:28:24;;;;;;;2.17;1.50;;;15.20;70.50;;;;;;5064648;28;20189;-75
2022/05/26 00:30:50;;;;;;;2.37;1.70;;;15.30;69.80;;;;;;5068117;28;20236;-75
2022/05/26 00:33:17;;;;;;;2.30;1.77;;;15.40;69.50;;;;;;5064889;28;20563;-76
2022/05/26 00:35:43;;;;;;;2.30;1.60;;;15.40;69.20;;;;;;5058063;28;20576;-75
2022/05/26 00:38:11;;;;;;;4.30;2.03;;;15.50;68.80;;;;;;5060860;28;20470;-76
2022/05/26 00:40:38;;;;;;;3.07;1.73;;;15.60;68.50;;;;;;5067168;28;20933;-76
2022/05/26 00:43:05;;;;;;;2.13;1.53;;;15.50;68.90;;;;;;5062074;28;20429;-74
2022/05/26 00:45:40;;;;;;;3.23;1.53;;;15.50;68.80;;;;;;5058137;28;20568;-75
2022/05/26 00:48:11;;;;;;;2.60;1.43;;;15.60;68.50;;;;;;5064354;28;20941;-77
2022/05/26 00:50:50;;;;;;;2.20;1.30;;;15.60;68.30;;;;;;5069086;28;20426;-76
2022/05/26 00:53:22;;;;;;;1.53;1.47;;;15.60;68.30;;;;;;5069434;28;20418;-75
2022/05/26 00:55:56;;;;;;;2.30;1.60;;;15.60;68.30;;;;;;5064420;28;20445;-75
2022/05/26 00:58:30;;;;;;;1.77;1.23;;;15.60;68.20;;;;;;5067043;28;21342;-75
2022/05/26 01:00:59;;;;;;;3.50;1.70;;;15.60;68.30;;;;;;5068635;28;20483;-76
2022/05/26 01:03:39;;;;;;;4.00;1.53;;;15.70;68.00;;;;;;5069775;28;20439;-76
2022/05/26 01:06:20;;;;;;;6.03;1.40;;;15.60;68.20;;;;;;5064621;28;20437;-77
2022/05/26 01:08:58;;;;;;;2.40;1.47;;;15.60;68.00;;;;;;5063630;28;20421;-76
2022/05/26 01:11:26;;;;;;;2.50;1.40;;;15.70;67.70;;;;;;5053767;28;20927;-78
2022/05/26 01:13:58;;;;;;;2.70;1.50;;;15.70;67.60;;;;;;5050018;28;20435;-77
2022/05/26 01:16:27;;;;;;;1.67;1.37;;;15.70;67.90;;;;;;5053184;28;20415;-76
2022/05/26 01:19:30;;;;;;;2.67;1.33;;;15.70;67.90;;;;;;5049926;28;20964;-76
2022/05/26 01:22:40;;;;;;;2.27;1.10;;;15.70;67.70;;;;;;5057045;28;20441;-75
2022/05/26 01:25:45;;;;;;;2.23;1.63;;;15.70;67.70;;;;;;5055357;28;20453;-75
2022/05/26 01:28:48;;;;;;;2.57;1.60;;;15.60;67.90;;;;;;5050875;28;20445;-76
2022/05/26 01:31:29;;;;;;;2.97;1.53;;;15.60;68.30;;;;;;5043829;28;20443;-75
2022/05/26 01:34:10;;;;;;;2.63;1.40;;;15.50;68.60;;;;;;5058327;28;21021;-76
2022/05/26 01:37:00;;;;;;;3.00;1.73;;;15.40;68.90;;;;;;5060427;28;20769;-75
2022/05/26 01:40:05;;;;;;;1.97;1.40;;;15.40;69.10;;;;;;5055683;28;20500;-75
2022/05/26 01:42:57;;;;;;;2.30;1.20;;;15.30;69.40;;;;;;5075327;28;20520;-75
2022/05/26 01:45:46;;;;;;;2.60;1.30;;;15.20;69.70;;;;;;5053540;28;20522;-76
2022/05/26 01:48:21;;;;;;;2.57;1.40;;;15.20;69.80;;;;;;5060500;28;20427;-75
2022/05/26 01:51:08;;;;;;;1.50;1.20;;;15.20;70.10;;;;;;5066481;28;20424;-76
2022/05/26 01:53:45;;;;;;;3.90;1.60;;;15.20;70.10;;;;;;5048622;28;20408;-76
2022/05/26 01:56:33;;;;;;;3.53;1.30;;;15.10;70.40;;;;;;5068745;28;20430;-75
2022/05/26 01:59:12;;;;;;;3.73;1.63;;;15.10;70.50;;;;;;5062704;28;20486;-76
2022/05/26 02:01:43;;;;;;;1.70;1.30;;;15.10;71.00;;;;;;5066777;28;20416;-77
2022/05/26 02:04:25;;;;;;;2.70;1.30;;;15.00;71.30;;;;;;5065685;28;20456;-75
2022/05/26 02:06:56;;;;;;;1.80;1.10;;;15.00;71.40;;;;;;5062016;28;20451;-76
2022/05/26 02:09:29;;;;;;;4.93;1.30;;;14.90;71.60;;;;;;5067439;28;20424;-78
2022/05/26 02:12:03;;;;;;;3.00;1.60;;;14.90;71.60;;;;;;5053069;28;20420;-76
2022/05/26 02:14:48;;;;;;;1.80;1.20;;;14.90;71.70;;;;;;5057526;28;20439;-76
2022/05/26 02:17:18;;;;;;;2.23;1.30;;;14.80;71.80;;;;;;5054941;28;20903;-76
2022/05/26 02:19:53;;;;;;;2.97;1.23;;;14.80;71.70;;;;;;5068789;28;20441;-76
2022/05/26 02:23:06;;;;;;;1.60;1.23;;;14.80;72.10;;;;;;5052926;28;20491;-74
2022/05/26 02:25:33;;;;;;;1.90;1.40;;;14.70;72.30;;;;;;5051738;28;20442;-76
2022/05/26 02:27:59;;;;;;;2.10;1.27;;;14.80;72.30;;;;;;5044012;28;20455;-76
2022/05/26 02:30:30;;;;;;;3.90;1.50;;;14.70;72.30;;;;;;5051481;28;20466;-77
2022/05/26 02:32:58;;;;;;;1.93;1.27;;;14.70;72.10;;;;;;5050208;28;20203;-75
2022/05/26 02:35:33;;;;;;;2.90;1.10;;;14.70;72.10;;;;;;5061562;28;20462;-76
2022/05/26 02:38:06;;;;;;;3.03;1.30;;;14.70;72.10;;;;;;5054454;28;20503;-76
2022/05/26 02:40:32;;;;;;;1.70;1.30;;;14.70;72.10;;;;;;5060631;28;20441;-75
2022/05/26 02:43:02;;;;;;;2.70;1.43;;;14.60;71.80;;;;;;5042383;28;20439;-76
2022/05/26 02:46:04;;;;;;;5.23;1.47;;;14.60;72.00;;;;;;5061326;28;20451;-75
2022/05/26 02:48:38;;;;;;;2.90;1.27;;;14.70;71.70;;;;;;5040653;28;20927;-75
2022/05/26 02:51:08;;;;;;;2.60;1.20;;;14.80;71.40;;;;;;5057002;28;20489;-75
2022/05/26 02:54:01;;;;;;;1.23;1.00;;;14.80;71.40;;;;;;5056155;28;20418;-76
2022/05/26 02:57:00;;;;;;;2.80;1.10;;;14.80;71.40;;;;;;5046977;28;20447;-74
2022/05/26 02:59:49;;;;;;;2.23;1.40;;;14.80;71.60;;;;;;5042937;28;20463;-75
2022/05/26 03:02:39;;;;;;;2.10;1.30;;;14.70;72.00;;;;;;5045174;28;20474;-76
2022/05/26 03:05:10;;;;;;;1.20;1.13;;;14.60;72.10;;;;;;5045098;28;20435;-75
2022/05/26 03:07:41;;;;;;;1.80;1.30;;;14.60;72.40;;;;;;5051840;28;20406;-76
2022/05/26 03:10:08;;;;;;;1.70;1.23;;;14.60;72.60;;;;;;5042826;28;20478;-76
2022/05/26 03:12:36;;;;;;;2.80;1.30;;;14.60;72.90;;;;;;5048147;28;20432;-75
2022/05/26 03:15:05;;;;;;;3.63;1.30;;;14.60;72.90;;;;;;5051346;28;20897;-75
2022/05/26 03:17:31;;;;;;;3.20;1.83;;;14.60;72.90;;;;;;5047731;28;20981;-75
2022/05/26 03:19:56;;;;;;;7.73;1.67;;;14.60;73.00;;;;;;5054279;28;20419;-74
2022/05/26 03:22:22;;;;;;;1.57;1.23;;;14.50;73.20;;;;;;5047673;28;20192;-75
2022/05/26 03:24:48;;;;;;;2.20;1.63;;;14.50;72.90;;;;;;5046069;28;20647;-75
2022/05/26 03:27:14;;;;;;;2.50;1.40;;;14.50;72.90;;;;;;5045244;28;20455;-76
2022/05/26 03:29:40;;;;;;;2.57;1.37;;;14.60;72.70;;;;;;5047985;28;20498;-77
2022/05/26 03:32:06;;;;;;;2.10;1.27;;;14.60;72.90;;;;;;5052601;28;20879;-75
2022/05/26 03:42:48;;;;;;;3.20;1.20;;;14.60;72.70;;;;;;5047259;28;20457;-75
2022/05/26 03:45:18;;;;;;;2.80;1.37;;;14.60;72.90;;;;;;5043317;28;20522;-76
2022/05/26 03:47:43;;;;;;;3.93;1.37;;;14.50;73.20;;;;;;5048346;28;20439;-75
2022/05/26 03:50:10;;;;;;;1.83;1.23;;;14.50;73.50;;;;;;5044509;28;20423;-76
2022/05/26 03:52:36;;;;;;;2.87;1.60;;;14.40;74.00;;;;;;5051388;28;20211;-76
2022/05/26 03:55:02;;;;;;;3.13;1.70;;;14.40;74.00;;;;;;5047716;28;20458;-75
2022/05/26 03:57:30;;;;;;;1.83;1.57;;;14.40;74.50;;;;;;5045977;28;20675;-77
2022/05/26 03:59:56;;;;;;;3.57;1.53;;;14.30;74.60;;;;;;5043028;28;20918;-76
2022/05/26 04:02:22;;;;;;;4.73;1.33;;;14.30;74.60;;;;;;5050414;28;20920;-77
2022/05/26 04:04:48;;;;;;;2.30;1.57;;;14.20;75.10;;;;;;5045549;28;20453;-76
2022/05/26 04:07:14;;;;;;;4.70;1.60;;;14.20;75.20;;;;;;5053831;28;20430;-78
2022/05/26 04:09:40;;;;;;;2.40;1.60;;;14.10;75.10;;;;;;5045673;28;20238;-78
2022/05/26 04:12:11;;;;;;;1.70;1.33;;;14.20;75.20;;;;;;5044903;28;20964;-77
2022/05/26 04:14:37;;;;;;;2.00;1.23;;;14.20;75.40;;;;;;5050386;28;20461;-77
2022/05/26 04:17:05;;;;;;;2.97;1.60;;;14.20;75.20;;;;;;5046811;28;20428;-76
2022/05/26 04:19:30;;;;;;;2.70;1.10;;;14.20;75.20;;;;;;5053208;28;20427;-77
2022/05/26 04:24:40;;;;;;;5.40;1.70;;;14.20;75.10;;;;;;5039877;28;20207;-76
2022/05/26 04:27:07;;;;;;;1.77;1.13;;;14.30;74.80;;;;;;5048135;28;20435;-78
2022/05/26 04:29:35;;;;;;;2.40;1.57;;;14.30;74.80;;;;;;5047200;28;20709;-79
2022/05/26 04:32:01;;;;;;;3.47;1.40;;;14.30;74.80;;;;;;5052357;28;20428;-76
2022/05/26 04:34:27;;;;;;;3.40;1.37;;;14.40;74.30;;;;;;5043575;28;20455;-79
2022/05/26 04:36:53;;;;;;;2.13;1.27;;;14.50;74.20;;;;;;5048710;28;20930;-77
2022/05/26 04:39:19;;;;;;;2.93;1.30;;;14.50;74.00;;;;;;5061216;28;20181;-73
2022/05/26 04:41:46;;;;;;;3.90;1.30;;;14.70;73.60;;;;;;5057996;28;20446;-75
2022/05/26 04:44:13;;;;;;;2.83;1.80;;;14.70;73.50;;;;;;5055129;28;21068;-77
2022/05/26 04:46:39;;;;;;;3.53;1.50;;;14.70;73.30;;;;;;5047570;28;20418;-78
2022/05/26 04:49:06;;;;;;;3.87;1.50;;;14.80;73.70;;;;;;5055997;28;20423;-77
2022/05/26 04:51:34;;;;;;;2.93;1.70;;;14.80;73.70;;;;;;5055070;28;20414;-77
2022/05/26 04:54:00;;;;;;;1.67;1.20;;;14.70;73.90;;;;;;5046358;28;20831;-77
2022/05/26 04:56:26;;;;;;;2.50;1.33;;;14.70;74.00;;;;;;5053423;28;20465;-76
2022/05/26 04:58:52;;;;;;;2.03;1.50;;;14.70;73.70;;;;;;5053890;28;20471;-77
2022/05/26 05:01:19;;;;;;;3.23;1.43;;;14.70;73.90;;;;;;5055616;28;20875;-79
2022/05/26 05:03:47;;;;;;;1.70;1.30;;;14.80;73.60;;;;;;5053166;28;20205;-76
2022/05/26 05:06:13;;;;;;;2.80;1.37;;;14.80;73.60;;;;;;5054480;28;20550;-78
2022/05/26 05:08:41;;;;;;;3.37;1.20;;;14.90;73.60;;;;;;5065482;28;20488;-77
2022/05/26 05:11:07;;;;;;;5.77;1.73;;;14.90;73.70;;;;;;5054558;28;20423;-77
2022/05/26 05:13:32;;;;;;;2.13;1.40;;;14.90;73.60;;;;;;5055508;28;20423;-77
2022/05/26 05:16:04;;;;;;;1.67;1.40;;;14.90;73.20;;;;;;5051333;28;20440;-77
2022/05/26 05:18:32;;;;;;;3.63;1.30;;;15.00;73.00;;;;;;5056216;28;20220;-76
2022/05/26 05:21:05;;;;;;;2.57;1.40;;;15.10;72.60;;;;;;5056441;28;20423;-77
2022/05/26 05:23:31;;;;;;;5.37;1.30;;;15.10;72.30;;;;;;5054859;28;20907;-77
2022/05/26 05:26:00;;;;;;;1.73;1.33;;;15.20;71.60;;;;;;5051034;28;20428;-77
2022/05/26 05:28:33;;;;;;;3.07;1.53;;;15.30;71.40;;;;;;5056644;28;20418;-75
2022/05/26 05:31:04;;;;;;;3.60;1.23;;;15.40;70.40;;;;;;5056666;28;20443;-76
2022/05/26 05:33:35;;;;;;;4.00;1.40;;;15.50;69.80;;;;;;5056324;28;20441;-76
2022/05/26 05:36:14;;;;;;;1.87;1.30;;;15.60;69.40;;;;;;5058605;28;20532;-76
2022/05/26 05:38:40;;;;;;;3.23;1.27;;;15.70;69.10;;;;;;5037980;28;20456;-78
2022/05/26 05:41:10;;;;;;;3.10;1.73;;;15.70;68.80;;;;;;5054005;28;20426;-76
2022/05/26 05:43:37;;;;;;;3.00;1.20;;;15.80;68.80;;;;;;5052179;28;20428;-77
2022/05/26 05:46:03;;;;;;;2.60;1.20;;;15.80;68.90;;;;;;5053973;28;20421;-77
2022/05/26 05:48:29;;;;;;;4.27;1.50;;;15.90;68.80;;;;;;5056642;28;20423;-77
2022/05/26 05:50:55;;;;;;;3.50;1.33;;;16.00;68.60;;;;;;5057137;28;20434;-77
2022/05/26 05:53:21;;;;;;;1.70;1.30;;;16.10;67.90;;;;;;5055190;28;20189;-76
2022/05/26 05:55:47;;;;;;;2.00;1.50;;;16.00;67.50;;;;;;5049336;28;20208;-77
2022/05/26 05:58:13;;;;;;;1.50;1.30;;;16.10;67.50;;;;;;5055287;28;20493;-77
2022/05/26 06:00:40;;;;;;;1.90;1.30;;;16.20;67.20;;;;;;5055239;28;20190;-76
2022/05/26 06:03:06;;;;;;;1.77;1.30;;;16.30;66.70;;;;;;5052978;28;20276;-78
2022/05/26 06:05:32;;;;;;;1.23;0.97;;;16.40;66.60;;;;;;5043755;28;20507;-76
2022/05/26 06:07:59;;;;;;;3.33;1.30;;;16.50;66.60;;;;;;5056388;28;20457;-76
2022/05/26 06:10:25;;;;;;;3.37;1.30;;;16.60;65.70;;;;;;5058188;28;20454;-77
2022/05/26 06:12:51;;;;;;;2.73;1.20;;;16.70;65.40;;;;;;5056583;28;20785;-77
2022/05/26 06:15:18;;;;;;;2.70;1.27;;;16.80;65.30;;;;;;5052945;28;20478;-76
2022/05/26 06:17:44;;;;;;;2.07;1.30;;;16.80;65.00;;;;;;5057691;28;20548;-77
2022/05/26 06:20:11;;;;;;;3.57;1.20;;;16.80;65.30;;;;;;5054251;28;20863;-76
2022/05/26 06:22:41;;;;;;;2.73;1.40;;;16.80;65.30;;;;;;5053639;28;20449;-77
2022/05/26 06:25:07;;;;;;;2.33;1.20;;;16.90;65.70;;;;;;5052083;28;20468;-76
2022/05/26 06:30:19;;;;;;;6.20;1.30;;;16.80;65.40;;;;;;5054159;28;20947;-76
2022/05/26 06:38:29;;;;;;;1.73;1.40;;;16.90;66.30;;;;;;5059653;28;20481;-76
2022/05/26 06:40:54;;;;;;;3.77;1.20;;;17.00;65.60;;;;;;5054425;28;20422;-77
2022/05/26 06:43:20;;;;;;;3.13;1.10;;;17.10;65.60;;;;;;5053861;28;20678;-77
2022/05/26 06:45:48;;;;;;;2.67;1.17;;;17.10;65.60;;;;;;5052243;28;20212;-77
2022/05/26 06:48:15;;;;;;;2.00;1.27;;;17.10;65.10;;;;;;5053481;28;20214;-77
2022/05/26 06:50:41;;;;;;;3.03;1.30;;;17.10;65.30;;;;;;5052922;28;20548;-77
2022/05/26 06:53:08;;;;;;;3.37;1.60;;;17.10;65.30;;;;;;5048454;28;20432;-76
2022/05/26 06:55:33;;;;;;;2.20;1.10;;;17.10;65.60;;;;;;5053331;28;20442;-76
2022/05/26 06:57:59;;;;;;;3.10;1.43;;;17.00;65.40;;;;;;5051311;28;20474;-78
2022/05/26 07:00:25;;;;;;;4.30;1.50;;;17.00;65.80;;;;;;5053015;28;20195;-79
2022/05/26 07:02:54;;;;;;;4.23;1.30;;;17.10;65.70;;;;;;5048629;28;20200;-77
2022/05/26 07:05:20;;;;;;;1.80;1.30;;;17.20;65.70;;;;;;5046066;28;20579;-78
2022/05/26 07:07:46;;;;;;;3.63;1.70;;;17.30;65.60;;;;;;5052718;28;20446;-78
2022/05/26 07:10:13;;;;;;;1.67;1.40;;;17.40;65.30;;;;;;5046340;28;20435;-79
2022/05/26 07:12:40;;;;;;;1.90;1.40;;;17.40;65.00;;;;;;5049742;28;20433;-76
2022/05/26 07:15:07;;;;;;;2.73;1.23;;;17.30;64.80;;;;;;5048653;28;20447;-77
2022/05/26 07:17:33;;;;;;;4.00;1.30;;;17.30;65.00;;;;;;5052036;28;20479;-77
2022/05/26 07:20:00;;;;;;;2.50;1.27;;;17.30;64.80;;;;;;5050889;28;20422;-78
2022/05/26 07:22:25;;;;;;;3.40;1.50;;;17.30;64.70;;;;;;5051830;28;21168;-77
2022/05/26 07:24:51;;;;;;;3.20;1.23;;;17.40;65.00;;;;;;5048008;28;20458;-77
2022/05/26 07:27:18;;;;;;;7.40;2.37;;;17.40;64.40;;;;;;5051207;28;20200;-78
2022/05/26 07:29:44;;;;;;;3.60;1.17;;;17.50;64.40;;;;;;5053438;28;20438;-76
2022/05/26 07:32:09;;;;;;;3.93;1.30;;;17.60;64.20;;;;;;5052025;28;20428;-77
2022/05/26 07:34:35;;;;;;;1.20;1.20;;;17.80;63.20;;;;;;5052457;28;20641;-77
2022/05/26 07:42:35;;;;;;;1.57;1.40;;;18.10;62.30;;;;;;5053821;28;20571;-78
2022/05/26 07:45:03;;;;;;;2.40;1.13;;;18.20;61.90;;;;;;5048387;28;20455;-78
2022/05/26 07:47:30;;;;;;;2.10;1.13;;;18.20;61.90;;;;;;5053212;28;20415;-79
2022/05/26 07:49:56;;;;;;;1.63;0.93;;;18.30;61.20;;;;;;5053407;28;20447;-76
2022/05/26 07:52:22;;;;;;;2.77;1.47;;;18.30;61.20;;;;;;5052378;28;21090;-75
2022/05/26 07:54:48;;;;;;;2.43;1.10;;;18.30;61.50;;;;;;5056637;28;20200;-76
2022/05/26 07:57:25;;;;;;;1.87;1.30;;;18.20;60.70;;;;;;5062029;28;20531;-75
2022/05/26 07:59:52;;;;;;;1.90;1.03;;;18.20;61.00;;;;;;5051984;28;20420;-76
2022/05/26 08:02:19;;;;;;;4.10;1.30;;;18.40;61.00;;;;;;5049522;28;20421;-78
2022/05/26 08:04:46;;;;;;;4.20;1.20;;;18.60;60.90;;;;;;5044113;28;20878;-78
2022/05/26 08:07:13;;;;;;;2.97;0.97;;;18.90;59.50;;;;;;5052590;28;20470;-78
2022/05/26 08:09:40;;;;;;;3.50;1.20;;;18.80;59.90;;;;;;5044195;28;20425;-77
2022/05/26 08:12:13;;;;;;;2.97;1.10;;;19.00;58.90;;;;;;5035072;28;20422;-78
2022/05/26 08:14:41;;;;;;;1.97;1.20;;;18.90;59.30;;;;;;5041618;28;20456;-77
2022/05/26 08:17:08;;;;;;;2.10;1.50;;;18.80;59.50;;;;;;5057955;28;20896;-77
2022/05/26 08:19:34;;;;;;;8.90;1.40;;;18.90;59.20;;;;;;5054488;28;20945;-78
2022/05/26 08:22:00;;;;;;;1.27;1.00;;;18.80;59.70;;;;;;5055107;28;20974;-75
2022/05/26 08:24:26;;;;;;;1.80;1.20;;;18.90;59.90;;;;;;5055955;28;20465;-77
2022/05/26 08:26:52;;;;;;;1.60;1.30;;;18.80;59.90;;;;;;5055545;28;20721;-76
2022/05/26 08:29:18;;;;;;;5.50;1.17;;;18.70;59.70;;;;;;5045166;28;20425;-76
2022/05/26 08:31:44;;;;;;;3.23;1.30;;;18.70;59.60;;;;;;5057244;28;20226;-76
2022/05/26 08:34:10;;;;;;;2.47;1.30;;;18.70;60.10;;;;;;5056735;28;20442;-76
2022/05/26 08:36:36;;;;;;;2.73;1.30;;;18.80;60.00;;;;;;5057607;28;20417;-77
2022/05/26 08:39:03;;;;;;;3.10;1.30;;;18.70;60.00;;;;;;5068691;28;20205;-76
2022/05/26 08:41:50;;;;;;;2.60;1.20;;;18.70;60.10;;;;;;5073462;28;20546;-77
2022/05/26 08:44:27;;;;;;;2.33;1.40;;;18.70;60.30;;;;;;5068890;28;20431;-76
2022/05/26 08:47:15;;;;;;;2.10;1.10;;;18.80;60.00;;;;;;5060927;28;20422;-78
2022/05/26 08:50:06;;;;;;;2.80;1.17;;;18.90;59.90;;;;;;5059395;28;20561;-77
2022/05/26 08:52:47;;;;;;;5.70;1.37;;;18.90;59.50;;;;;;5066031;28;20488;-77
2022/05/26 08:55:18;;;;;;;1.70;1.37;;;19.00;59.90;;;;;;5063139;28;20443;-76
2022/05/26 08:57:47;;;;;;;1.50;1.00;;;19.00;59.60;;;;;;5068541;28;20474;-77
2022/05/26 09:00:20;;;;;;;3.20;1.17;;;19.00;60.10;;;;;;5064863;28;20493;-77
2022/05/26 09:02:46;;;;;;;4.57;1.50;;;19.00;60.00;;;;;;5058579;28;20524;-78
2022/05/26 09:05:20;;;;;;;2.40;1.10;;;19.10;59.10;;;;;;5050946;28;20437;-77
2022/05/26 09:13:41;;;;;;;1.60;1.30;;;19.50;59.20;;;;;;5045949;28;20409;-77
2022/05/26 09:16:08;;;;;;;5.63;1.40;;;19.30;58.70;;;;;;5049969;28;20421;-77
2022/05/26 09:18:35;;;;;;;2.40;1.40;;;19.40;58.80;;;;;;5055673;28;20454;-77
2022/05/26 09:21:22;;;;;;;6.03;1.67;;;19.60;58.50;;;;;;5056706;28;20529;-77
2022/05/26 09:23:48;;;;;;;1.80;1.20;;;19.70;57.80;;;;;;5054282;28;20953;-76
2022/05/26 09:26:24;;;;;;;3.40;1.77;;;19.60;58.40;;;;;;5052588;28;20418;-77
2022/05/26 09:28:52;;;;;;;3.67;1.60;;;19.80;59.20;;;;;;5066270;28;20422;-77
2022/05/26 09:31:31;;;;;;;2.23;1.10;;;20.10;57.60;;;;;;5067551;28;20414;-77
2022/05/26 09:34:09;;;;;;;1.63;1.20;;;20.10;57.20;;;;;;5070936;28;20461;-78
2022/05/26 09:36:52;;;;;;;1.53;1.40;;;20.00;57.20;;;;;;5067076;28;20411;-78
2022/05/26 09:39:30;;;;;;;1.63;1.13;;;19.80;57.60;;;;;;5059134;28;20887;-78
2022/05/26 09:41:58;;;;;;;2.57;1.83;;;19.50;58.70;;;;;;5058613;28;20415;-77
2022/05/26 09:44:32;;;;;;;2.70;1.40;;;19.50;58.50;;;;;;5054364;28;20533;-77
2022/05/26 09:47:04;;;;;;;1.87;1.17;;;19.20;58.90;;;;;;5054949;28;20939;-77
2022/05/26 09:49:38;;;;;;;2.20;1.43;;;18.90;59.70;;;;;;5063683;28;20398;-77
2022/05/26 09:52:17;;;;;;;2.80;1.13;;;18.90;60.00;;;;;;5058286;28;20409;-77
2022/05/26 09:54:44;;;;;;;3.30;1.30;;;18.80;60.10;;;;;;5049107;28;20444;-77
2022/05/26 09:57:20;;;;;;;3.40;1.20;;;18.90;60.60;;;;;;5055033;28;20464;-77
2022/05/26 09:59:46;;;;;;;2.23;1.37;;;19.00;60.10;;;;;;5047463;28;20914;-76
2022/05/26 10:02:26;;;;;;;3.07;1.53;;;18.90;60.00;;;;;;5054919;28;20411;-77
2022/05/26 10:04:52;;;;;;;4.03;1.50;;;18.90;60.60;;;;;;5054083;28;20444;-77
2022/05/26 10:07:41;;;;;;;2.30;1.20;;;19.00;60.40;;;;;;5054831;28;20436;-78
2022/05/26 10:10:13;;;;;;;2.83;1.30;;;19.00;60.30;;;;;;5043973;28;20475;-75
2022/05/26 10:12:57;;;;;;;3.30;1.53;;;18.80;60.40;;;;;;5059534;28;20429;-76
2022/05/26 10:15:53;;;;;;;3.00;1.40;;;18.90;61.00;;;;;;5060142;28;20498;-77
2022/05/26 10:19:11;;;;;;;2.23;1.27;;;19.00;59.90;;;;;;5056201;28;20443;-77
2022/05/26 10:21:59;;;;;;;2.07;1.30;;;19.00;59.60;;;;;;5052924;28;20427;-77
2022/05/26 10:24:37;;;;;;;2.07;1.50;;;18.80;60.10;;;;;;5054785;28;20938;-77
2022/05/26 10:27:09;;;;;;;3.00;1.40;;;19.00;60.30;;;;;;5055902;28;20428;-76
2022/05/26 10:29:57;;;;;;;2.03;1.10;;;19.30;59.90;;;;;;5056248;28;20525;-77
2022/05/26 10:32:29;;;;;;;1.87;1.47;;;19.30;59.20;;;;;;5056663;28;20399;-78
2022/05/26 10:35:09;;;;;;;3.53;1.87;;;19.40;59.70;;;;;;5055867;28;20442;-77
2022/05/26 10:38:01;;;;;;;2.00;1.40;;;19.40;59.20;;;;;;5055374;28;20460;-77
2022/05/26 10:40:40;;;;;;;2.97;1.17;;;18.90;60.40;;;;;;5055243;28;20500;-77
2022/05/26 10:43:29;;;;;;;2.90;1.13;;;18.80;60.90;;;;;;5064614;28;20400;-77
2022/05/26 10:45:57;;;;;;;4.30;1.47;;;19.20;60.30;;;;;;5063137;28;20422;-77
2022/05/26 10:48:25;;;;;;;2.87;1.50;;;19.40;59.70;;;;;;5054424;28;20418;-78
2022/05/26 10:51:01;;;;;;;4.20;1.60;;;19.40;59.70;;;;;;5051207;28;20430;-77
2022/05/26 10:53:47;;;;;;;3.27;1.87;;;19.40;59.10;;;;;;5057788;28;20433;-78
2022/05/26 10:56:43;;;;;;;1.80;1.50;;;19.20;58.80;;;;;;5048577;28;20431;-77
2022/05/26 10:59:35;;;;;;;6.93;1.53;;;19.00;59.50;;;;;;5058272;28;20549;-77
2022/05/26 11:02:13;;;;;;;24.43;12.50;;;18.90;60.30;;;;;;5055977;28;20906;-76
2022/05/26 11:04:47;;;;;;;2.17;1.37;;;18.90;61.00;;;;;;5059210;28;20468;-77
2022/05/26 11:07:33;;;;;;;2.00;1.30;;;18.80;61.00;;;;;;5060431;28;20501;-77
2022/05/26 11:10:05;;;;;;;2.30;1.40;;;18.80;60.60;;;;;;5060948;28;20412;-77
2022/05/26 11:12:50;;;;;;;6.30;1.77;;;18.80;61.00;;;;;;5058372;28;20418;-78
2022/05/26 11:18:26;;;;;;;2.90;1.30;;;19.10;60.30;;;;;;5045749;28;20493;-78
2022/05/26 11:20:54;;;;;;;7.87;1.40;;;19.40;59.60;;;;;;5056663;28;20427;-76
2022/05/26 11:23:22;;;;;;;2.20;1.40;;;19.40;60.00;;;;;;5053430;28;20445;-77
2022/05/26 11:25:54;;;;;;;2.23;1.20;;;19.60;59.50;;;;;;5056563;28;20442;-77
2022/05/26 11:28:39;;;;;;;4.23;1.47;;;19.70;59.30;;;;;;5055253;28;20419;-77
2022/05/26 11:36:52;;;;;;;2.90;1.63;;;19.90;58.20;;;;;;5053064;28;20853;-76
2022/05/26 11:39:25;;;;;;;6.37;1.80;;;19.90;58.50;;;;;;5053284;28;20455;-77
2022/05/26 11:41:58;;;;;;;2.87;1.70;;;19.60;58.40;;;;;;5051615;28;20419;-76
2022/05/26 11:44:33;;;;;;;2.00;1.50;;;19.50;58.90;;;;;;5050947;28;20988;-76
2022/05/26 11:47:12;;;;;;;2.83;1.50;;;19.50;58.80;;;;;;5052808;28;20437;-76
2022/05/26 11:49:43;;;;;;;3.03;1.90;;;19.40;59.90;;;;;;5052965;28;20973;-78
2022/05/26 11:52:27;;;;;;;2.90;1.80;;;19.50;59.70;;;;;;5051801;28;20452;-77
2022/05/26 11:54:52;;;;;;;4.10;2.20;;;19.40;60.00;;;;;;5038216;28;20442;-77
2022/05/26 11:57:34;;;;;;;6.70;3.03;;;19.70;60.10;;;;;;5052084;28;20435;-77
2022/05/26 12:00:16;;;;;;;3.57;1.70;;;20.10;58.80;;;;;;5052932;28;20485;-77
2022/05/26 12:02:46;;;;;;;4.77;2.10;;;20.00;58.90;;;;;;5045007;28;20790;-77
2022/05/26 12:05:30;;;;;;;6.63;2.10;;;20.10;58.40;;;;;;5052069;28;20469;-78
2022/05/26 12:08:05;;;;;;;2.73;1.57;;;20.20;58.40;;;;;;5051816;28;20498;-76
2022/05/26 12:10:53;;;;;;;4.00;1.40;;;20.00;58.10;;;;;;5044126;28;20469;-78
2022/05/26 12:13:22;;;;;;;2.30;1.70;;;19.70;58.50;;;;;;5051574;28;20415;-77
2022/05/26 12:16:25;;;;;;;3.00;1.53;;;19.50;59.10;;;;;;5051143;28;20443;-77
2022/05/26 12:18:55;;;;;;;3.40;1.80;;;19.30;59.60;;;;;;5049069;28;20915;-76
2022/05/26 12:21:27;;;;;;;2.50;1.67;;;19.10;61.00;;;;;;5049595;28;20527;-76
2022/05/26 12:23:57;;;;;;;2.60;1.40;;;19.00;61.30;;;;;;5032823;28;20870;-78
2022/05/26 12:26:43;;;;;;;2.50;1.40;;;19.00;61.30;;;;;;5049491;28;20416;-78
2022/05/26 12:29:45;;;;;;;4.10;2.00;;;19.00;61.90;;;;;;5052173;28;20406;-78
2022/05/26 12:32:19;;;;;;;2.53;1.50;;;19.00;62.30;;;;;;5050365;28;20422;-77
2022/05/26 12:35:26;;;;;;;3.30;1.93;;;19.10;62.00;;;;;;5049145;28;20588;-77
2022/05/26 12:38:03;;;;;;;3.63;2.27;;;19.00;62.50;;;;;;5032657;28;20838;-77
2022/05/26 12:40:40;;;;;;;4.13;2.10;;;19.00;62.90;;;;;;5049424;28;20483;-77
2022/05/26 12:43:27;;;;;;;2.10;1.70;;;19.10;62.60;;;;;;5049501;28;20403;-76
2022/05/26 12:46:25;;;;;;;2.57;1.67;;;19.10;62.90;;;;;;5049533;28;20421;-77
2022/05/26 12:49:09;;;;;;;2.93;1.90;;;19.40;62.80;;;;;;5031084;28;20429;-77
2022/05/26 12:51:39;;;;;;;5.10;2.60;;;19.80;61.90;;;;;;5032827;28;20816;-78
2022/05/26 12:54:19;;;;;;;3.20;2.10;;;20.10;61.50;;;;;;5051227;28;20443;-77
2022/05/26 12:56:59;;;;;;;2.00;1.40;;;20.40;58.90;;;;;;5051887;28;20942;-78
2022/05/26 12:59:32;;;;;;;4.23;2.00;;;20.30;59.70;;;;;;5047031;28;20987;-77
2022/05/26 13:01:58;;;;;;;3.50;2.20;;;20.20;59.30;;;;;;5053332;28;20443;-78
2022/05/26 13:04:34;;;;;;;2.80;2.10;;;20.10;60.60;;;;;;5051709;28;20460;-77
2022/05/26 13:07:04;;;;;;;5.30;2.60;;;20.10;60.00;;;;;;5056279;28;20533;-77
2022/05/26 13:09:39;;;;;;;7.90;4.00;;;20.00;61.00;;;;;;5056477;28;20780;-78
2022/05/26 13:12:06;;;;;;;6.23;1.97;;;20.30;60.90;;;;;;5056011;28;20450;-78
2022/05/26 13:14:45;;;;;;;3.20;2.50;;;19.90;60.40;;;;;;5057555;28;20450;-78
2022/05/26 13:17:14;;;;;;;3.13;2.53;;;20.00;61.60;;;;;;5058408;28;20421;-76
2022/05/26 13:19:49;;;;;;;3.43;2.20;;;20.20;60.60;;;;;;5056949;28;20411;-78
2022/05/26 13:22:21;;;;;;;2.40;1.80;;;20.00;60.90;;;;;;5045988;28;20399;-78
2022/05/26 13:24:56;;;;;;;4.30;2.40;;;20.00;60.70;;;;;;5050574;28;20463;-78
2022/05/26 13:27:24;;;;;;;4.67;2.17;;;19.60;62.60;;;;;;5055766;28;20415;-78
2022/05/26 13:29:52;;;;;;;6.30;2.40;;;19.40;63.70;;;;;;5059191;28;20476;-77
2022/05/26 13:35:20;;;;;;;2.27;1.60;;;18.90;65.80;;;;;;5055194;28;20430;-76
2022/05/26 13:37:46;;;;;;;6.70;2.40;;;18.90;65.70;;;;;;5047594;28;20458;-79
2022/05/26 13:40:14;;;;;;;3.63;2.10;;;19.10;65.60;;;;;;5054559;28;20460;-77
2022/05/26 13:42:46;;;;;;;5.30;2.37;;;19.00;65.30;;;;;;5053042;28;20428;-77
2022/05/26 13:45:25;;;;;;;5.23;2.33;;;18.80;66.70;;;;;;5054472;28;20441;-77
2022/05/26 13:48:31;;;;;;;4.07;2.60;;;19.00;66.30;;;;;;5053356;28;20436;-77
2022/05/26 13:51:20;;;;;;;4.00;2.27;;;18.80;66.60;;;;;;5054622;28;20438;-79
2022/05/26 13:54:08;;;;;;;5.83;2.63;;;18.90;66.30;;;;;;5054122;28;20433;-77
2022/05/26 13:56:35;;;;;;;8.07;3.80;;;18.80;66.60;;;;;;5054292;28;20422;-78
2022/05/26 13:59:10;;;;;;;3.83;2.07;;;18.80;66.90;;;;;;5052981;28;20472;-77
2022/05/26 14:01:49;;;;;;;6.20;2.50;;;19.10;65.70;;;;;;5054657;28;20595;-76